Wallowa, OR (97885)

4:17 AM PDT on October 25, 2014 (GMT -0700)
Elementary School | Change Station
CLOSE
Current Station
Personal Weather Station
Location: Wallowa, OR
Elevation: 2948 ft
Nearby Weather Stations

Elev 2948 ft 45.57 °N, 117.53 °W | Updated 11 seconds ago

Partly Cloudy
Partly Cloudy
44.3 °F
Feels Like 44 °F
N
0.0
Wind Variable Wind from West
Gusts 0.0 mph

Today
High -- | Low -- °F
--% Chance of Precip.
Yesterday
High -- | Low -- °F
Precip. -- in
7:20 AM 5:47 PM
Waxing Crescent, 3% visible
Pressure 29.80 in
Visibility 10.0 miles
Clouds Clear
Windchill 44 °F
Dew Point 43 °F
Humidity 94%
Rainfall 0.00 in
Snow Depth Not available.
UV 0 out of 12
Pollen 2.40 out of 12
Air Quality Not available.
Flu Activity Sporadic
METAR KLGD 251055Z AUTO 33005KT 10SM CLR 07/02 A2980 RMK AO1

More Conditions Fewer Conditions

Pressure 29.80 in
Visibility 10.0 miles
Clouds Clear
Windchill 44 °F
Dew Point 43 °F
Humidity 94%
Rainfall 0.00 in
Snow Depth Not available.
UV 0 out of 12
Pollen 2.40 out of 12
Air Quality Not available.
Flu Activity Sporadic
METAR KLGD 251055Z AUTO 33005KT 10SM CLR 07/02 A2980 RMK AO1

More Conditions Fewer Conditions

10-Day Weather Forecast

Almanac

Astronomy

Oct. 25, 2014 Rise Set
Actual Time 7:20 AM PDT 5:47 PM PDT
Civil Twilight 6:49 AM PDT 6:17 PM PDT
Nautical Twilight 6:14 AM PDT 6:52 PM PDT
Astronomical Twilight 5:40 AM PDT 7:26 PM PDT
Moon 9:07 AM PDT 7:09 PM PDT
Length of Visible Light 11h 28m
Length of Day
10h 27m
Tomorrow will be 2m 58s shorter.
Waxing Crescent, 3% of the Moon is Illuminated
Today
Waxing Crescent
Oct 30
First Quarter
Nov 6
Full
Nov 14
Last Quarter
Nov 22
New

Today's Extremes

State Highs State Lows

Community

WunderPhotos

Upload Photos

1,764,808 photos uploaded!

Nearby

Snow Depth

Station Depth Elevation
Mt. Howard 1 in 7910 ft
High Ridge 0 in 4980 ft
Schneider Meadows 0 in 5400 ft
Emigrant Springs 2 in 3925 ft
Bowman Springs 0 in 4580 ft

Earthquake Activity

City Distance Mag. Time & Date
No recent earthquake activity has been reported nearby.
Minimum magnitude displayed is 2.5.

Coastal Water Temperatures

Place Temperature
No Stations Reporting

Nearby Weather Stations